ADDS METAR Data INFO
IDs: Format: Raw Decoded Include TAF

Data at: 0353 UTC 20 Feb 2018

KGFL 200253Z AUTO 24003KT 3SM BR OVC004 03/03 A3022 RMK AO2 RAE19 SLP242 P0001 60004 T00330033 55009
KGFL 200244Z AUTO 22004KT 2 1/2SM BR OVC004 03/03 A3022 RMK AO2 RAE19 P0001 T00330033
KGFL 200216Z AUTO 21005KT 4SM -RA BR OVC004 03/03 A3023 RMK AO2 P0001 T00280028
KGFL 200153Z AUTO 19005KT 3SM -RA BR OVC005 03/03 A3023 RMK AO2 UPB34E35 SLP245 P0002 T00280028
KGFL 200053Z AUTO 18003KT 4SM -RA BR OVC006 03/02 A3025 RMK AO2 RAB29 SLP252 P0001 T00280022
KGFL 200032Z AUTO 00000KT 4SM -RA BR BKN007 OVC014 02/02 A3026 RMK AO2 RAB29 CIG 006V011 P0000 T00220022
KGFL 192353Z AUTO 17004KT 5SM BR FEW008 OVC017 02/02 A3026 RMK AO2 RAE37 SLP259 P0001 60003 T00220022 10056 20022 53001
KGFL 192323Z AUTO 27004KT 5SM -RA BR SCT007 BKN020 OVC026 03/02 A3027 RMK AO2 PRESRR P0001 T00280022
KGFL 192253Z AUTO 19005KT 6SM -RA BR BKN026 OVC039 03/02 A3024 RMK AO2 SLP251 P0002 T00280022
KGFL 192227Z AUTO 20007KT 4SM -RA BR BKN023 OVC030 03/02 A3025 RMK AO2 P0001 T00280017
KGFL 192153Z AUTO 20010G17KT 8SM -RA BKN030 BKN045 OVC050 03/01 A3025 RMK AO2 RAB2056E12B32 SLP255 P0000 T00330011
KGFL 192053Z AUTO 19019G26KT 10SM OVC038 05/M01 A3026 RMK AO2 PK WND 19026/2052 SLP256 T00501006 56016
KGFL 191953Z AUTO 20009KT 10SM OVC042 05/M02 A3028 RMK AO2 SLP263 T00501017
KGFL 191853Z AUTO 18010G22KT 10SM OVC045 05/M01 A3028 RMK AO2 SLP262 T00501011
KGFL 191753Z AUTO 18012G19KT 10SM FEW047 05/M02 A3031 RMK AO2 SLP272 T00501017 10056 21089 58023
KGFL 191653Z AUTO 19012G15KT 10SM CLR 04/M02 A3034 RMK AO2 SLP282 T00441022
KGFL 191553Z AUTO 21007G19KT 10SM CLR 03/M03 A3037 RMK AO2 SLP295 T00331033
KGFL 191453Z AUTO 19011G20KT 10SM CLR 02/M04 A3038 RMK AO2 SLP296 T00221044 58013
KGFL 191353Z AUTO 20009KT 10SM CLR 00/M06 A3043 RMK AO2 SLP315 T00001061
KGFL 191253Z AUTO 00000KT 10SM CLR M02/M07 A3044 RMK AO2 SLP316 T10221067
KGFL 191153Z AUTO 17004KT 10SM CLR M09/M11 A3042 RMK AO2 SLP311 I6000 T10891106 11061 21111 58008
KGFL 191053Z AUTO 00000KT 10SM CLR M11/M12 A3044 RMK AO2 SLP320 T11061122
KGFL 190953Z AUTO 00000KT 10SM CLR M10/M11 A3045 RMK AO2 SLP321 I1000 T11001106
KGFL 190853Z AUTO 00000KT 9SM CLR M11/M12 A3044 RMK AO2 SLP319 I1000 I3000 T11061117 55005
KGFL 190753Z AUTO 00000KT 10SM CLR M10/M12 A3044 RMK AO2 SLP318 T11001117
KGFL 190653Z AUTO 00000KT 10SM CLR M08/M09 A3044 RMK AO2 SLP317 T10831094
KGFL 190553Z AUTO 00000KT 10SM CLR M08/M10 A3045 RMK AO2 SLP322 T10831100 11017 21089 58002
KGFL 190453Z AUTO 00000KT 10SM CLR M08/M10 A3046 RMK AO2 SLP326 T10781100 400391083
KGFL 190353Z AUTO 00000KT 10SM CLR M06/M08 A3046 RMK AO2 SLP324 T10611083
KGFL 190253Z AUTO 00000KT 10SM BKN040 M06/M08 A3046 RMK AO2 SLP324 T10561078 50012
KGFL 190153Z AUTO 24003KT 10SM CLR M02/M06 A3047 RMK AO2 SLP327 T10221061
KGFL 190053Z AUTO 23003KT 10SM BKN050 M02/M06 A3046 RMK AO2 SLP326 T10221061
KGFL 182353Z AUTO 23004KT 10SM CLR M03/M07 A3042 RMK AO2 SLP314 T10281067 10039 21028 53027
KGFL 182253Z AUTO 00000KT 10SM OVC050 01/M07 A3039 RMK AO2 SLP302 T00111072
KGFL 182153Z AUTO 28008KT 10SM BKN050 03/M08 A3036 RMK AO2 SLP289 T00281078
KGFL 182053Z AUTO 28006KT 10SM OVC050 03/M07 A3034 RMK AO2 SLP283 T00331072 53024
KGFL 181953Z AUTO 07004KT 10SM OVC046 02/M04 A3031 RMK AO2 SLP273 T00221044
KGFL 181853Z AUTO 12003KT 10SM OVC045 02/M04 A3028 RMK AO2 SLP263 T00221044
KGFL 181753Z AUTO 00000KT 10SM OVC047 02/M05 A3027 RMK AO2 SLP259 T00221050 10028 21078 53008
KGFL 181653Z AUTO 14004KT 10SM BKN037 OVC044 01/M04 A3023 RMK AO2 SLP247 T00111039